sensor_id;sensor_type;location;lat;lon;timestamp;noise_LAeq;noise_LA_min;noise_LA_max;noise_LA01;noise_LA95
58197;Laerm;43999;51.660;5.616;2023-04-06T00:00:50;42.07;36.91;46.71;;
58197;Laerm;43999;51.660;5.616;2023-04-06T00:03:18;41.60;38.21;46.84;;
58197;Laerm;43999;51.660;5.616;2023-04-06T00:05:48;51.37;37.70;68.01;;
58197;Laerm;43999;51.660;5.616;2023-04-06T00:08:16;52.59;38.81;66.80;;
58197;Laerm;43999;51.660;5.616;2023-04-06T00:10:43;53.72;38.05;71.50;;
58197;Laerm;43999;51.660;5.616;2023-04-06T00:13:11;43.57;37.88;56.74;;
58197;Laerm;43999;51.660;5.616;2023-04-06T00:15:38;43.80;37.88;62.75;;
58197;Laerm;43999;51.660;5.616;2023-04-06T00:18:06;42.63;37.52;51.62;;
58197;Laerm;43999;51.660;5.616;2023-04-06T00:20:34;41.84;37.32;54.89;;
58197;Laerm;43999;51.660;5.616;2023-04-06T00:23:02;42.95;37.52;65.01;;
58197;Laerm;43999;51.660;5.616;2023-04-06T00:25:29;45.84;37.70;63.09;;
58197;Laerm;43999;51.660;5.616;2023-04-06T00:27:57;41.98;38.21;50.36;;
58197;Laerm;43999;51.660;5.616;2023-04-06T00:30:24;42.09;38.21;50.73;;
58197;Laerm;43999;51.660;5.616;2023-04-06T00:32:53;43.64;38.37;53.98;;
58197;Laerm;43999;51.660;5.616;2023-04-06T00:35:21;42.11;38.81;52.18;;
58197;Laerm;43999;51.660;5.616;2023-04-06T00:37:48;42.09;36.91;51.03;;
58197;Laerm;43999;51.660;5.616;2023-04-06T00:40:20;47.13;38.21;61.97;;
58197;Laerm;43999;51.660;5.616;2023-04-06T00:42:47;42.22;38.05;46.10;;
58197;Laerm;43999;51.660;5.616;2023-04-06T00:45:17;43.30;39.08;55.11;;
58197;Laerm;43999;51.660;5.616;2023-04-06T00:47:45;44.41;37.88;67.54;;
58197;Laerm;43999;51.660;5.616;2023-04-06T00:50:14;42.23;37.52;59.20;;
58197;Laerm;43999;51.660;5.616;2023-04-06T00:52:42;43.15;38.37;52.55;;
58197;Laerm;43999;51.660;5.616;2023-04-06T00:55:10;42.27;37.70;47.61;;
58197;Laerm;43999;51.660;5.616;2023-04-06T00:57:41;43.78;37.70;64.47;;
58197;Laerm;43999;51.660;5.616;2023-04-06T01:00:49;43.30;38.52;59.96;;
58197;Laerm;43999;51.660;5.616;2023-04-06T01:03:50;43.43;37.52;64.45;;
58197;Laerm;43999;51.660;5.616;2023-04-06T01:06:20;42.42;37.88;53.98;;
58197;Laerm;43999;51.660;5.616;2023-04-06T01:08:56;42.48;36.91;48.83;;
58197;Laerm;43999;51.660;5.616;2023-04-06T01:11:26;42.39;38.37;55.15;;
58197;Laerm;43999;51.660;5.616;2023-04-06T01:14:01;42.72;37.32;59.52;;
58197;Laerm;43999;51.660;5.616;2023-04-06T01:16:50;43.26;36.77;62.88;;
58197;Laerm;43999;51.660;5.616;2023-04-06T01:19:24;42.71;38.52;62.25;;
58197;Laerm;43999;51.660;5.616;2023-04-06T01:21:59;43.07;38.67;61.76;;
58197;Laerm;43999;51.660;5.616;2023-04-06T01:24:29;60.94;37.32;76.87;;
58197;Laerm;43999;51.660;5.616;2023-04-06T01:27:21;42.56;37.12;59.18;;
58197;Laerm;43999;51.660;5.616;2023-04-06T01:29:50;43.43;38.37;55.33;;
58197;Laerm;43999;51.660;5.616;2023-04-06T01:32:37;42.45;38.52;58.72;;
58197;Laerm;43999;51.660;5.616;2023-04-06T01:35:08;44.69;38.67;55.21;;
58197;Laerm;43999;51.660;5.616;2023-04-06T01:37:42;42.32;37.12;47.55;;
58197;Laerm;43999;51.660;5.616;2023-04-06T01:40:14;42.97;36.91;50.80;;
58197;Laerm;43999;51.660;5.616;2023-04-06T01:42:47;42.69;38.52;51.65;;
58197;Laerm;43999;51.660;5.616;2023-04-06T01:45:27;42.20;37.70;54.23;;
58197;Laerm;43999;51.660;5.616;2023-04-06T01:48:00;41.75;38.02;50.01;;
58197;Laerm;43999;51.660;5.616;2023-04-06T01:50:30;44.22;38.74;54.96;;
58197;Laerm;43999;51.660;5.616;2023-04-06T01:53:00;50.69;37.88;69.78;;
58197;Laerm;43999;51.660;5.616;2023-04-06T01:55:30;42.01;38.05;44.31;;
58197;Laerm;43999;51.660;5.616;2023-04-06T01:58:15;42.72;35.36;53.31;;
58197;Laerm;43999;51.660;5.616;2023-04-06T02:00:44;52.15;38.95;66.48;;
58197;Laerm;43999;51.660;5.616;2023-04-06T02:03:13;42.90;37.88;57.15;;
58197;Laerm;43999;51.660;5.616;2023-04-06T02:05:44;42.35;37.52;46.38;;
58197;Laerm;43999;51.660;5.616;2023-04-06T02:08:26;42.93;38.67;51.44;;
58197;Laerm;43999;51.660;5.616;2023-04-06T02:10:56;49.70;38.21;65.41;;
58197;Laerm;43999;51.660;5.616;2023-04-06T02:13:32;43.43;39.21;50.34;;
58197;Laerm;43999;51.660;5.616;2023-04-06T02:16:02;43.79;39.08;53.17;;
58197;Laerm;43999;51.660;5.616;2023-04-06T02:18:31;43.63;37.52;62.30;;
58197;Laerm;43999;51.660;5.616;2023-04-06T02:21:06;43.06;38.95;58.31;;
58197;Laerm;43999;51.660;5.616;2023-04-06T02:23:34;45.67;39.58;61.54;;
58197;Laerm;43999;51.660;5.616;2023-04-06T02:26:03;42.75;38.32;51.53;;
58197;Laerm;43999;51.660;5.616;2023-04-06T02:28:31;51.19;40.33;66.74;;
58197;Laerm;43999;51.660;5.616;2023-04-06T02:31:02;49.13;39.92;66.84;;
58197;Laerm;43999;51.660;5.616;2023-04-06T02:33:31;45.66;39.08;59.68;;
58197;Laerm;43999;51.660;5.616;2023-04-06T02:36:00;52.38;38.95;67.91;;
58197;Laerm;43999;51.660;5.616;2023-04-06T02:38:28;43.02;38.67;51.69;;
58197;Laerm;43999;51.660;5.616;2023-04-06T02:41:03;43.75;39.46;56.40;;
58197;Laerm;43999;51.660;5.616;2023-04-06T02:43:33;44.72;39.08;58.72;;
58197;Laerm;43999;51.660;5.616;2023-04-06T02:46:07;50.83;39.92;67.80;;
58197;Laerm;43999;51.660;5.616;2023-04-06T02:48:37;48.17;38.81;64.76;;
58197;Laerm;43999;51.660;5.616;2023-04-06T02:51:05;50.87;40.33;63.76;;
58197;Laerm;43999;51.660;5.616;2023-04-06T02:53:35;51.70;41.38;63.90;;
58197;Laerm;43999;51.660;5.616;2023-04-06T02:56:05;49.04;40.98;61.59;;
58197;Laerm;43999;51.660;5.616;2023-04-06T02:58:47;47.09;41.06;56.27;;
58197;Laerm;43999;51.660;5.616;2023-04-06T03:01:16;51.87;41.38;66.49;;
58197;Laerm;43999;51.660;5.616;2023-04-06T03:03:47;53.51;41.38;69.66;;
58197;Laerm;43999;51.660;5.616;2023-04-06T03:06:24;46.09;40.98;58.31;;
58197;Laerm;43999;51.660;5.616;2023-04-06T03:09:06;51.58;41.61;66.78;;
58197;Laerm;43999;51.660;5.616;2023-04-06T03:11:35;46.97;40.80;58.38;;
58197;Laerm;43999;51.660;5.616;2023-04-06T03:14:11;45.79;41.61;55.76;;
58197;Laerm;43999;51.660;5.616;2023-04-06T03:16:39;52.46;42.09;65.99;;
58197;Laerm;43999;51.660;5.616;2023-04-06T03:19:08;50.17;42.35;63.43;;
58197;Laerm;43999;51.660;5.616;2023-04-06T03:21:36;55.54;43.81;70.13;;
58197;Laerm;43999;51.660;5.616;2023-04-06T03:24:05;58.18;43.72;73.44;;
58197;Laerm;43999;51.660;5.616;2023-04-06T03:26:39;55.75;41.68;69.34;;
58197;Laerm;43999;51.660;5.616;2023-04-06T03:29:13;52.73;42.29;65.90;;
58197;Laerm;43999;51.660;5.616;2023-04-06T03:31:42;49.23;41.96;59.64;;
58197;Laerm;43999;51.660;5.616;2023-04-06T03:34:39;52.47;42.98;66.17;;
58197;Laerm;43999;51.660;5.616;2023-04-06T03:37:09;48.09;42.71;60.70;;
58197;Laerm;43999;51.660;5.616;2023-04-06T03:39:48;55.92;43.63;68.61;;
58197;Laerm;43999;51.660;5.616;2023-04-06T03:42:21;55.37;43.63;66.03;;
58197;Laerm;43999;51.660;5.616;2023-04-06T03:44:53;57.93;44.43;71.10;;
58197;Laerm;43999;51.660;5.616;2023-04-06T03:47:22;56.70;44.19;69.80;;
58197;Laerm;43999;51.660;5.616;2023-04-06T03:49:51;55.27;43.58;68.76;;
58197;Laerm;43999;51.660;5.616;2023-04-06T03:52:20;53.95;43.14;65.50;;
58197;Laerm;43999;51.660;5.616;2023-04-06T03:54:52;57.85;43.24;69.64;;
58197;Laerm;43999;51.660;5.616;2023-04-06T03:57:20;53.48;43.09;72.92;;
58197;Laerm;43999;51.660;5.616;2023-04-06T03:59:48;58.04;44.35;78.78;;
58197;Laerm;43999;51.660;5.616;2023-04-06T04:02:17;52.18;44.23;67.50;;
58197;Laerm;43999;51.660;5.616;2023-04-06T04:04:45;48.98;44.03;64.16;;
58197;Laerm;43999;51.660;5.616;2023-04-06T04:07:14;56.94;45.04;69.82;;
58197;Laerm;43999;51.660;5.616;2023-04-06T04:09:50;55.81;44.47;70.06;;
58197;Laerm;43999;51.660;5.616;2023-04-06T04:12:20;52.47;44.69;68.65;;
58197;Laerm;43999;51.660;5.616;2023-04-06T04:14:51;60.58;45.48;75.94;;
58197;Laerm;43999;51.660;5.616;2023-04-06T04:17:18;57.02;44.80;69.91;;
58197;Laerm;43999;51.660;5.616;2023-04-06T04:19:46;58.97;44.83;70.47;;
58197;Laerm;43999;51.660;5.616;2023-04-06T04:22:15;57.99;44.03;71.22;;
58197;Laerm;43999;51.660;5.616;2023-04-06T04:24:47;60.05;44.03;80.49;;
58197;Laerm;43999;51.660;5.616;2023-04-06T04:27:16;57.00;44.80;69.15;;
58197;Laerm;43999;51.660;5.616;2023-04-06T04:29:44;56.75;44.65;68.97;;
58197;Laerm;43999;51.660;5.616;2023-04-06T04:32:18;62.09;45.91;79.04;;
58197;Laerm;43999;51.660;5.616;2023-04-06T04:34:47;57.79;45.20;74.43;;
58197;Laerm;43999;51.660;5.616;2023-04-06T04:37:36;59.99;45.54;78.19;;
58197;Laerm;43999;51.660;5.616;2023-04-06T04:40:06;55.53;45.27;68.25;;
58197;Laerm;43999;51.660;5.616;2023-04-06T04:42:45;54.84;47.03;66.18;;
58197;Laerm;43999;51.660;5.616;2023-04-06T04:45:35;60.40;47.63;76.92;;
58197;Laerm;43999;51.660;5.616;2023-04-06T04:48:15;61.18;47.10;79.70;;
58197;Laerm;43999;51.660;5.616;2023-04-06T04:50:58;59.30;46.30;70.74;;
58197;Laerm;43999;51.660;5.616;2023-04-06T04:53:34;59.12;49.02;69.76;;
58197;Laerm;43999;51.660;5.616;2023-04-06T04:56:13;59.36;46.69;79.94;;
58197;Laerm;43999;51.660;5.616;2023-04-06T04:58:41;57.79;47.93;67.92;;
58197;Laerm;43999;51.660;5.616;2023-04-06T05:01:11;58.73;47.57;69.65;;
58197;Laerm;43999;51.660;5.616;2023-04-06T05:03:43;60.30;46.97;72.99;;
58197;Laerm;43999;51.660;5.616;2023-04-06T05:06:17;62.11;47.50;80.90;;
58197;Laerm;43999;51.660;5.616;2023-04-06T05:08:54;59.24;47.67;72.69;;
58197;Laerm;43999;51.660;5.616;2023-04-06T05:11:25;63.41;48.87;80.14;;
58197;Laerm;43999;51.660;5.616;2023-04-06T05:13:59;62.45;47.67;75.56;;
58197;Laerm;43999;51.660;5.616;2023-04-06T05:16:49;61.48;49.20;75.76;;
58197;Laerm;43999;51.660;5.616;2023-04-06T05:19:29;60.19;46.87;72.84;;
58197;Laerm;43999;51.660;5.616;2023-04-06T05:22:02;60.84;47.93;73.46;;
58197;Laerm;43999;51.660;5.616;2023-04-06T05:24:35;58.14;46.87;77.50;;
58197;Laerm;43999;51.660;5.616;2023-04-06T05:27:09;60.64;47.40;77.39;;
58197;Laerm;43999;51.660;5.616;2023-04-06T05:29:38;66.50;48.96;88.25;;
58197;Laerm;43999;51.660;5.616;2023-04-06T05:32:08;62.89;49.41;76.48;;
58197;Laerm;43999;51.660;5.616;2023-04-06T05:34:40;62.73;48.73;80.00;;
58197;Laerm;43999;51.660;5.616;2023-04-06T05:37:08;60.36;50.54;69.21;;
58197;Laerm;43999;51.660;5.616;2023-04-06T05:39:40;64.31;48.96;78.26;;
58197;Laerm;43999;51.660;5.616;2023-04-06T05:42:09;62.13;49.66;71.74;;
58197;Laerm;43999;51.660;5.616;2023-04-06T05:45:09;64.40;49.50;81.26;;
58197;Laerm;43999;51.660;5.616;2023-04-06T05:48:05;65.73;51.39;80.99;;
58197;Laerm;43999;51.660;5.616;2023-04-06T05:50:36;68.52;53.99;85.67;;
58197;Laerm;43999;51.660;5.616;2023-04-06T05:53:14;62.82;49.75;79.77;;
58197;Laerm;43999;51.660;5.616;2023-04-06T05:55:53;61.65;51.70;71.06;;
58197;Laerm;43999;51.660;5.616;2023-04-06T05:58:23;62.91;52.78;81.89;;
58197;Laerm;43999;51.660;5.616;2023-04-06T06:01:01;61.07;50.06;71.10;;
58197;Laerm;43999;51.660;5.616;2023-04-06T06:03:52;63.55;50.42;75.85;;
58197;Laerm;43999;51.660;5.616;2023-04-06T06:06:28;64.22;53.21;75.14;;
58197;Laerm;43999;51.660;5.616;2023-04-06T06:09:16;62.14;50.42;72.93;;
58197;Laerm;43999;51.660;5.616;2023-04-06T06:12:09;67.72;50.47;82.05;;
58197;Laerm;43999;51.660;5.616;2023-04-06T06:14:41;67.28;51.22;83.30;;
58197;Laerm;43999;51.660;5.616;2023-04-06T06:17:09;61.22;51.67;70.12;;
58197;Laerm;43999;51.660;5.616;2023-04-06T06:19:38;63.19;52.21;79.18;;
58197;Laerm;43999;51.660;5.616;2023-04-06T06:22:08;63.40;53.43;72.24;;
58197;Laerm;43999;51.660;5.616;2023-04-06T06:24:40;65.28;54.57;77.35;;
58197;Laerm;43999;51.660;5.616;2023-04-06T06:27:11;63.49;53.84;76.53;;
58197;Laerm;43999;51.660;5.616;2023-04-06T06:29:39;62.20;50.67;73.61;;
58197;Laerm;43999;51.660;5.616;2023-04-06T06:32:07;60.61;51.85;70.34;;
58197;Laerm;43999;51.660;5.616;2023-04-06T06:34:40;65.62;54.51;87.01;;
58197;Laerm;43999;51.660;5.616;2023-04-06T06:37:09;68.68;56.34;81.42;;
58197;Laerm;43999;51.660;5.616;2023-04-06T06:39:40;68.83;62.78;82.68;;
58197;Laerm;43999;51.660;5.616;2023-04-06T06:42:09;65.89;59.35;77.71;;
58197;Laerm;43999;51.660;5.616;2023-04-06T06:44:53;68.97;60.14;83.57;;
58197;Laerm;43999;51.660;5.616;2023-04-06T06:47:42;72.29;63.86;92.64;;
58197;Laerm;43999;51.660;5.616;2023-04-06T06:50:12;76.04;58.03;102.26;;
58197;Laerm;43999;51.660;5.616;2023-04-06T06:52:40;70.46;65.90;84.41;;
58197;Laerm;43999;51.660;5.616;2023-04-06T06:55:13;70.46;66.00;87.82;;
58197;Laerm;43999;51.660;5.616;2023-04-06T06:57:42;75.98;64.73;103.18;;
58197;Laerm;43999;51.660;5.616;2023-04-06T07:00:20;71.98;65.07;80.78;;
58197;Laerm;43999;51.660;5.616;2023-04-06T07:02:49;78.35;61.49;105.61;;
58197;Laerm;43999;51.660;5.616;2023-04-06T07:05:20;69.55;65.28;82.71;;
58197;Laerm;43999;51.660;5.616;2023-04-06T07:07:59;72.92;64.42;97.01;;
58197;Laerm;43999;51.660;5.616;2023-04-06T07:10:27;78.05;65.82;86.83;;
58197;Laerm;43999;51.660;5.616;2023-04-06T07:12:56;78.08;61.78;91.25;;
58197;Laerm;43999;51.660;5.616;2023-04-06T07:15:25;70.88;63.03;77.82;;
58197;Laerm;43999;51.660;5.616;2023-04-06T07:18:21;78.92;67.66;89.59;;
58197;Laerm;43999;51.660;5.616;2023-04-06T07:20:50;79.32;63.54;87.00;;
58197;Laerm;43999;51.660;5.616;2023-04-06T07:23:19;72.31;63.18;82.01;;
58197;Laerm;43999;51.660;5.616;2023-04-06T07:25:47;79.30;63.90;89.35;;
58197;Laerm;43999;51.660;5.616;2023-04-06T07:28:17;77.71;62.98;85.09;;
58197;Laerm;43999;51.660;5.616;2023-04-06T07:30:48;72.28;65.85;80.08;;
58197;Laerm;43999;51.660;5.616;2023-04-06T07:33:18;76.45;62.97;103.73;;
58197;Laerm;43999;51.660;5.616;2023-04-06T07:35:54;76.34;64.60;102.14;;
58197;Laerm;43999;51.660;5.616;2023-04-06T07:38:22;73.40;59.74;91.16;;
58197;Laerm;43999;51.660;5.616;2023-04-06T07:40:53;74.47;70.43;81.79;;
58197;Laerm;43999;51.660;5.616;2023-04-06T07:43:24;79.29;69.91;105.25;;
58197;Laerm;43999;51.660;5.616;2023-04-06T07:45:53;79.71;71.60;94.61;;
58197;Laerm;43999;51.660;5.616;2023-04-06T07:48:22;78.69;68.35;85.64;;
58197;Laerm;43999;51.660;5.616;2023-04-06T07:51:03;83.90;70.76;90.71;;
58197;Laerm;43999;51.660;5.616;2023-04-06T07:53:40;77.65;66.78;86.87;;
58197;Laerm;43999;51.660;5.616;2023-04-06T07:56:08;68.54;65.74;79.49;;
58197;Laerm;43999;51.660;5.616;2023-04-06T07:58:39;77.56;63.74;104.52;;
58197;Laerm;43999;51.660;5.616;2023-04-06T08:01:14;69.89;52.02;84.45;;
58197;Laerm;43999;51.660;5.616;2023-04-06T08:03:42;62.78;50.19;79.14;;
58197;Laerm;43999;51.660;5.616;2023-04-06T08:06:11;64.36;50.96;71.72;;
58197;Laerm;43999;51.660;5.616;2023-04-06T08:08:43;64.04;49.80;77.13;;
58197;Laerm;43999;51.660;5.616;2023-04-06T08:11:13;61.54;51.84;80.62;;
58197;Laerm;43999;51.660;5.616;2023-04-06T08:13:43;66.18;55.95;84.62;;
58197;Laerm;43999;51.660;5.616;2023-04-06T08:16:21;65.14;49.77;74.33;;
58197;Laerm;43999;51.660;5.616;2023-04-06T08:18:58;62.48;52.28;73.34;;
58197;Laerm;43999;51.660;5.616;2023-04-06T08:21:27;68.09;53.65;76.33;;
58197;Laerm;43999;51.660;5.616;2023-04-06T08:23:57;63.36;50.68;74.87;;
58197;Laerm;43999;51.660;5.616;2023-04-06T08:26:27;62.56;50.65;75.94;;
58197;Laerm;43999;51.660;5.616;2023-04-06T08:29:02;66.51;60.68;79.44;;
58197;Laerm;43999;51.660;5.616;2023-04-06T08:31:31;66.90;60.70;77.39;;
58197;Laerm;43999;51.660;5.616;2023-04-06T08:34:03;68.13;64.70;76.80;;
58197;Laerm;43999;51.660;5.616;2023-04-06T08:36:35;66.71;54.09;77.08;;
58197;Laerm;43999;51.660;5.616;2023-04-06T08:39:06;60.63;51.18;75.19;;
58197;Laerm;43999;51.660;5.616;2023-04-06T08:41:42;61.51;51.72;73.92;;
58197;Laerm;43999;51.660;5.616;2023-04-06T08:44:23;57.84;48.40;72.99;;
58197;Laerm;43999;51.660;5.616;2023-04-06T08:46:52;59.96;50.63;80.01;;
58197;Laerm;43999;51.660;5.616;2023-04-06T08:49:21;62.31;49.89;77.32;;
58197;Laerm;43999;51.660;5.616;2023-04-06T08:51:49;59.72;50.29;79.75;;
58197;Laerm;43999;51.660;5.616;2023-04-06T08:54:19;59.58;48.90;75.92;;
58197;Laerm;43999;51.660;5.616;2023-04-06T08:56:48;63.96;52.84;82.15;;
58197;Laerm;43999;51.660;5.616;2023-04-06T08:59:23;61.06;48.69;75.50;;
58197;Laerm;43999;51.660;5.616;2023-04-06T09:01:55;60.77;49.94;72.57;;
58197;Laerm;43999;51.660;5.616;2023-04-06T09:04:26;73.19;51.03;89.99;;
58197;Laerm;43999;51.660;5.616;2023-04-06T09:06:55;65.28;54.70;85.25;;
58197;Laerm;43999;51.660;5.616;2023-04-06T09:09:23;64.47;50.25;80.41;;
58197;Laerm;43999;51.660;5.616;2023-04-06T09:11:52;69.89;55.08;82.26;;
58197;Laerm;43999;51.660;5.616;2023-04-06T09:14:39;65.67;53.98;80.25;;
58197;Laerm;43999;51.660;5.616;2023-04-06T09:17:07;67.17;64.06;79.56;;
58197;Laerm;43999;51.660;5.616;2023-04-06T09:19:49;66.60;53.95;79.18;;
58197;Laerm;43999;51.660;5.616;2023-04-06T09:22:21;60.97;53.00;78.27;;
58197;Laerm;43999;51.660;5.616;2023-04-06T09:24:59;63.75;53.78;85.68;;
58197;Laerm;43999;51.660;5.616;2023-04-06T09:27:36;72.01;64.12;94.81;;
58197;Laerm;43999;51.660;5.616;2023-04-06T09:30:11;72.18;65.43;94.27;;
58197;Laerm;43999;51.660;5.616;2023-04-06T09:32:54;72.50;62.19;97.59;;
58197;Laerm;43999;51.660;5.616;2023-04-06T09:35:27;68.49;61.51;86.16;;
58197;Laerm;43999;51.660;5.616;2023-04-06T09:37:56;67.37;63.47;84.00;;
58197;Laerm;43999;51.660;5.616;2023-04-06T09:40:26;69.48;60.66;90.58;;
58197;Laerm;43999;51.660;5.616;2023-04-06T09:42:55;73.49;64.72;87.58;;
58197;Laerm;43999;51.660;5.616;2023-04-06T09:45:30;75.30;68.08;91.32;;
58197;Laerm;43999;51.660;5.616;2023-04-06T09:48:05;72.50;62.54;88.53;;
58197;Laerm;43999;51.660;5.616;2023-04-06T09:50:43;74.40;65.65;91.92;;
58197;Laerm;43999;51.660;5.616;2023-04-06T09:53:11;76.42;70.60;87.45;;
58197;Laerm;43999;51.660;5.616;2023-04-06T09:55:45;80.18;72.17;94.14;;
58197;Laerm;43999;51.660;5.616;2023-04-06T09:58:22;78.40;70.56;92.03;;
58197;Laerm;43999;51.660;5.616;2023-04-06T10:01:09;74.88;67.28;85.11;;
58197;Laerm;43999;51.660;5.616;2023-04-06T10:06:34;71.50;61.26;89.22;;
58197;Laerm;43999;51.660;5.616;2023-04-06T10:09:07;61.66;51.23;83.31;;
58197;Laerm;43999;51.660;5.616;2023-04-06T10:11:46;61.63;53.64;74.15;;
58197;Laerm;43999;51.660;5.616;2023-04-06T10:14:16;63.47;51.83;77.81;;
58197;Laerm;43999;51.660;5.616;2023-04-06T10:16:45;63.79;53.12;78.13;;
58197;Laerm;43999;51.660;5.616;2023-04-06T10:19:36;68.53;51.36;91.31;;
58197;Laerm;43999;51.660;5.616;2023-04-06T10:22:18;64.16;49.95;84.13;;
58197;Laerm;43999;51.660;5.616;2023-04-06T10:24:48;62.80;55.84;74.23;;
58197;Laerm;43999;51.660;5.616;2023-04-06T10:27:29;63.60;51.78;80.96;;
58197;Laerm;43999;51.660;5.616;2023-04-06T10:30:07;63.46;54.07;73.68;;
58197;Laerm;43999;51.660;5.616;2023-04-06T10:32:40;70.68;56.42;88.83;;
58197;Laerm;43999;51.660;5.616;2023-04-06T10:35:19;67.49;55.71;87.66;;
58197;Laerm;43999;51.660;5.616;2023-04-06T10:38:03;67.28;55.47;86.26;;
58197;Laerm;43999;51.660;5.616;2023-04-06T10:40:39;64.47;53.09;85.64;;
58197;Laerm;43999;51.660;5.616;2023-04-06T10:43:22;61.96;54.51;73.66;;
58197;Laerm;43999;51.660;5.616;2023-04-06T10:46:01;64.89;54.08;87.20;;
58197;Laerm;43999;51.660;5.616;2023-04-06T10:48:48;61.10;54.48;77.27;;
58197;Laerm;43999;51.660;5.616;2023-04-06T10:51:25;68.27;55.42;91.65;;
58197;Laerm;43999;51.660;5.616;2023-04-06T10:54:11;65.41;54.29;93.69;;
58197;Laerm;43999;51.660;5.616;2023-04-06T10:56:46;65.45;54.40;86.65;;
58197;Laerm;43999;51.660;5.616;2023-04-06T10:59:21;63.22;55.22;84.91;;
58197;Laerm;43999;51.660;5.616;2023-04-06T11:01:55;66.87;57.48;79.53;;
58197;Laerm;43999;51.660;5.616;2023-04-06T11:04:30;68.60;54.51;91.48;;
58197;Laerm;43999;51.660;5.616;2023-04-06T11:06:58;62.88;53.50;79.08;;
58197;Laerm;43999;51.660;5.616;2023-04-06T11:09:29;65.88;54.74;82.45;;
58197;Laerm;43999;51.660;5.616;2023-04-06T11:12:00;64.53;52.28;83.38;;
58197;Laerm;43999;51.660;5.616;2023-04-06T11:14:31;64.04;52.76;83.73;;
58197;Laerm;43999;51.660;5.616;2023-04-06T11:17:03;64.51;51.34;87.25;;
58197;Laerm;43999;51.660;5.616;2023-04-06T11:19:40;67.22;53.31;89.85;;
58197;Laerm;43999;51.660;5.616;2023-04-06T11:22:12;65.74;53.01;89.77;;
58197;Laerm;43999;51.660;5.616;2023-04-06T11:24:44;66.09;56.86;84.79;;
58197;Laerm;43999;51.660;5.616;2023-04-06T11:27:15;64.70;53.16;82.98;;
58197;Laerm;43999;51.660;5.616;2023-04-06T11:29:45;65.50;52.33;85.38;;
58197;Laerm;43999;51.660;5.616;2023-04-06T11:32:22;64.11;54.02;79.97;;
58197;Laerm;43999;51.660;5.616;2023-04-06T11:34:57;69.18;54.89;87.53;;
58197;Laerm;43999;51.660;5.616;2023-04-06T11:37:26;66.34;53.89;88.72;;
58197;Laerm;43999;51.660;5.616;2023-04-06T11:39:57;68.71;53.99;91.51;;
58197;Laerm;43999;51.660;5.616;2023-04-06T11:42:30;64.96;53.88;83.98;;
58197;Laerm;43999;51.660;5.616;2023-04-06T11:44:59;66.43;57.21;82.36;;
58197;Laerm;43999;51.660;5.616;2023-04-06T11:47:37;67.21;61.12;86.48;;
58197;Laerm;43999;51.660;5.616;2023-04-06T11:50:23;64.12;60.54;78.71;;
58197;Laerm;43999;51.660;5.616;2023-04-06T11:53:02;65.97;61.79;85.49;;
58197;Laerm;43999;51.660;5.616;2023-04-06T11:55:38;69.06;61.78;85.74;;
58197;Laerm;43999;51.660;5.616;2023-04-06T11:58:08;70.20;55.22;90.38;;
58197;Laerm;43999;51.660;5.616;2023-04-06T12:00:37;67.29;60.33;82.74;;
58197;Laerm;43999;51.660;5.616;2023-04-06T12:03:06;70.47;54.70;87.57;;
58197;Laerm;43999;51.660;5.616;2023-04-06T12:05:36;66.87;56.31;88.18;;
58197;Laerm;43999;51.660;5.616;2023-04-06T12:08:05;69.04;55.45;88.18;;
58197;Laerm;43999;51.660;5.616;2023-04-06T12:10:38;65.94;56.17;81.09;;
58197;Laerm;43999;51.660;5.616;2023-04-06T12:13:06;67.45;55.75;87.32;;
58197;Laerm;43999;51.660;5.616;2023-04-06T12:15:34;67.20;57.76;82.25;;
58197;Laerm;43999;51.660;5.616;2023-04-06T12:18:05;66.87;58.70;77.98;;
58197;Laerm;43999;51.660;5.616;2023-04-06T12:20:33;69.38;58.23;89.74;;
58197;Laerm;43999;51.660;5.616;2023-04-06T12:23:05;69.00;57.80;87.85;;
58197;Laerm;43999;51.660;5.616;2023-04-06T12:25:33;67.89;57.75;88.55;;
58197;Laerm;43999;51.660;5.616;2023-04-06T12:28:00;67.44;58.92;89.87;;
58197;Laerm;43999;51.660;5.616;2023-04-06T12:30:30;68.41;58.78;90.51;;
58197;Laerm;43999;51.660;5.616;2023-04-06T12:33:02;66.86;55.94;89.00;;
58197;Laerm;43999;51.660;5.616;2023-04-06T12:35:37;69.30;57.51;89.62;;
58197;Laerm;43999;51.660;5.616;2023-04-06T12:38:06;66.76;57.21;83.48;;
58197;Laerm;43999;51.660;5.616;2023-04-06T12:40:44;66.36;56.81;79.32;;
58197;Laerm;43999;51.660;5.616;2023-04-06T12:43:17;65.98;57.45;77.50;;
58197;Laerm;43999;51.660;5.616;2023-04-06T12:45:49;65.80;55.12;82.19;;
58197;Laerm;43999;51.660;5.616;2023-04-06T12:48:19;67.57;52.51;87.23;;
58197;Laerm;43999;51.660;5.616;2023-04-06T12:51:08;66.95;58.36;74.95;;
58197;Laerm;43999;51.660;5.616;2023-04-06T12:53:37;69.72;56.73;91.55;;
58197;Laerm;43999;51.660;5.616;2023-04-06T12:56:18;71.96;56.32;93.11;;
58197;Laerm;43999;51.660;5.616;2023-04-06T12:58:53;68.48;56.39;89.11;;
58197;Laerm;43999;51.660;5.616;2023-04-06T13:01:21;68.73;60.09;87.43;;
58197;Laerm;43999;51.660;5.616;2023-04-06T13:03:49;68.16;58.73;76.55;;
58197;Laerm;43999;51.660;5.616;2023-04-06T13:06:23;67.60;57.25;79.36;;
58197;Laerm;43999;51.660;5.616;2023-04-06T13:08:56;69.24;60.55;88.50;;
58197;Laerm;43999;51.660;5.616;2023-04-06T13:11:29;69.99;60.79;86.65;;
58197;Laerm;43999;51.660;5.616;2023-04-06T13:13:58;69.38;59.67;77.63;;
58197;Laerm;43999;51.660;5.616;2023-04-06T13:16:25;67.70;59.17;78.90;;
58197;Laerm;43999;51.660;5.616;2023-04-06T13:18:58;72.01;61.48;91.43;;
58197;Laerm;43999;51.660;5.616;2023-04-06T13:21:25;69.07;60.11;79.77;;
58197;Laerm;43999;51.660;5.616;2023-04-06T13:23:54;69.60;60.14;89.82;;
58197;Laerm;43999;51.660;5.616;2023-04-06T13:26:23;68.48;60.48;81.04;;
58197;Laerm;43999;51.660;5.616;2023-04-06T13:28:50;70.30;62.43;86.49;;
58197;Laerm;43999;51.660;5.616;2023-04-06T13:31:18;69.21;59.89;78.26;;
58197;Laerm;43999;51.660;5.616;2023-04-06T13:33:45;70.50;57.73;86.67;;
58197;Laerm;43999;51.660;5.616;2023-04-06T13:36:14;69.59;62.02;85.08;;
58197;Laerm;43999;51.660;5.616;2023-04-06T13:38:44;70.03;61.08;79.84;;
58197;Laerm;43999;51.660;5.616;2023-04-06T13:41:25;70.02;62.70;81.93;;
58197;Laerm;43999;51.660;5.616;2023-04-06T13:43:53;70.80;63.05;83.73;;
58197;Laerm;43999;51.660;5.616;2023-04-06T13:46:22;71.15;60.69;87.71;;
58197;Laerm;43999;51.660;5.616;2023-04-06T13:48:57;72.81;61.77;85.58;;
58197;Laerm;43999;51.660;5.616;2023-04-06T13:51:24;69.81;59.58;80.23;;
58197;Laerm;43999;51.660;5.616;2023-04-06T13:53:53;70.95;63.60;81.60;;
58197;Laerm;43999;51.660;5.616;2023-04-06T13:56:21;70.59;61.66;89.57;;
58197;Laerm;43999;51.660;5.616;2023-04-06T13:58:54;70.60;61.68;78.28;;
58197;Laerm;43999;51.660;5.616;2023-04-06T14:01:25;71.54;60.86;81.18;;
58197;Laerm;43999;51.660;5.616;2023-04-06T14:03:54;71.47;64.47;79.54;;
58197;Laerm;43999;51.660;5.616;2023-04-06T14:06:24;71.52;59.48;83.19;;
58197;Laerm;43999;51.660;5.616;2023-04-06T14:08:59;70.63;61.28;86.71;;
58197;Laerm;43999;51.660;5.616;2023-04-06T14:11:28;71.06;61.82;83.57;;
58197;Laerm;43999;51.660;5.616;2023-04-06T14:13:56;71.16;59.97;80.28;;
58197;Laerm;43999;51.660;5.616;2023-04-06T14:16:29;71.05;62.87;81.75;;
58197;Laerm;43999;51.660;5.616;2023-04-06T14:18:58;72.22;62.36;88.39;;